sensor_id;sensor_type;location;lat;lon;timestamp;P1;durP1;ratioP1;P2;durP2;ratioP2
28174;SDS011;59417;44.788;10.334;2022-12-07T00:02:04;34.60;;;23.40;;
28174;SDS011;59417;44.788;10.334;2022-12-07T00:04:30;36.38;;;23.50;;
28174;SDS011;59417;44.788;10.334;2022-12-07T00:06:56;37.13;;;24.35;;
28174;SDS011;59417;44.788;10.334;2022-12-07T00:09:21;44.42;;;22.52;;
28174;SDS011;59417;44.788;10.334;2022-12-07T00:11:48;32.85;;;21.95;;
28174;SDS011;59417;44.788;10.334;2022-12-07T00:14:16;33.33;;;22.85;;
28174;SDS011;59417;44.788;10.334;2022-12-07T00:16:43;27.67;;;20.67;;
28174;SDS011;59417;44.788;10.334;2022-12-07T00:19:11;29.90;;;20.83;;
28174;SDS011;59417;44.788;10.334;2022-12-07T00:21:38;33.80;;;21.77;;
28174;SDS011;59417;44.788;10.334;2022-12-07T00:24:05;32.28;;;20.95;;
28174;SDS011;59417;44.788;10.334;2022-12-07T00:26:35;31.35;;;20.77;;
28174;SDS011;59417;44.788;10.334;2022-12-07T00:29:06;32.45;;;21.48;;
28174;SDS011;59417;44.788;10.334;2022-12-07T00:31:50;26.02;;;20.85;;
28174;SDS011;59417;44.788;10.334;2022-12-07T00:34:17;28.15;;;19.10;;
28174;SDS011;59417;44.788;10.334;2022-12-07T00:36:44;28.45;;;20.55;;
28174;SDS011;59417;44.788;10.334;2022-12-07T00:39:13;26.73;;;17.85;;
28174;SDS011;59417;44.788;10.334;2022-12-07T00:41:39;27.35;;;18.38;;
28174;SDS011;59417;44.788;10.334;2022-12-07T00:44:05;25.30;;;18.95;;
28174;SDS011;59417;44.788;10.334;2022-12-07T00:46:31;27.95;;;18.75;;
28174;SDS011;59417;44.788;10.334;2022-12-07T00:48:57;25.73;;;17.75;;
28174;SDS011;59417;44.788;10.334;2022-12-07T00:51:24;25.05;;;18.48;;
28174;SDS011;59417;44.788;10.334;2022-12-07T00:53:51;27.42;;;19.65;;
28174;SDS011;59417;44.788;10.334;2022-12-07T00:56:20;25.95;;;18.15;;
28174;SDS011;59417;44.788;10.334;2022-12-07T00:58:58;28.30;;;19.48;;
28174;SDS011;59417;44.788;10.334;2022-12-07T01:01:29;27.38;;;18.33;;
28174;SDS011;59417;44.788;10.334;2022-12-07T01:03:58;25.88;;;19.23;;
28174;SDS011;59417;44.788;10.334;2022-12-07T01:06:26;23.13;;;17.55;;
28174;SDS011;59417;44.788;10.334;2022-12-07T01:08:54;26.95;;;18.15;;
28174;SDS011;59417;44.788;10.334;2022-12-07T01:11:24;24.30;;;18.55;;
28174;SDS011;59417;44.788;10.334;2022-12-07T01:13:54;25.80;;;18.92;;
28174;SDS011;59417;44.788;10.334;2022-12-07T01:21:27;24.73;;;17.95;;
28174;SDS011;59417;44.788;10.334;2022-12-07T01:23:56;28.13;;;19.67;;
28174;SDS011;59417;44.788;10.334;2022-12-07T01:26:29;27.25;;;20.38;;
28174;SDS011;59417;44.788;10.334;2022-12-07T01:28:56;27.83;;;18.98;;
28174;SDS011;59417;44.788;10.334;2022-12-07T01:31:26;30.48;;;19.85;;
28174;SDS011;59417;44.788;10.334;2022-12-07T01:33:54;28.35;;;20.27;;
28174;SDS011;59417;44.788;10.334;2022-12-07T01:36:32;24.35;;;19.17;;
28174;SDS011;59417;44.788;10.334;2022-12-07T01:39:01;27.02;;;19.67;;
28174;SDS011;59417;44.788;10.334;2022-12-07T01:41:33;32.05;;;20.92;;
28174;SDS011;59417;44.788;10.334;2022-12-07T01:46:59;28.95;;;19.52;;
28174;SDS011;59417;44.788;10.334;2022-12-07T01:49:36;31.30;;;20.95;;
28174;SDS011;59417;44.788;10.334;2022-12-07T01:54:44;30.42;;;20.27;;
28174;SDS011;59417;44.788;10.334;2022-12-07T01:57:12;27.83;;;19.30;;
28174;SDS011;59417;44.788;10.334;2022-12-07T01:59:41;28.00;;;21.13;;
28174;SDS011;59417;44.788;10.334;2022-12-07T02:02:13;33.03;;;20.60;;
28174;SDS011;59417;44.788;10.334;2022-12-07T02:04:48;33.63;;;22.38;;
28174;SDS011;59417;44.788;10.334;2022-12-07T02:07:16;34.45;;;23.05;;
28174;SDS011;59417;44.788;10.334;2022-12-07T02:09:43;35.83;;;21.75;;
28174;SDS011;59417;44.788;10.334;2022-12-07T02:12:08;30.73;;;22.02;;
28174;SDS011;59417;44.788;10.334;2022-12-07T02:14:34;30.65;;;22.23;;
28174;SDS011;59417;44.788;10.334;2022-12-07T02:30:15;35.33;;;24.58;;
28174;SDS011;59417;44.788;10.334;2022-12-07T02:32:57;37.47;;;24.58;;
28174;SDS011;59417;44.788;10.334;2022-12-07T02:35:39;33.83;;;23.52;;
28174;SDS011;59417;44.788;10.334;2022-12-07T02:38:40;34.85;;;24.30;;
28174;SDS011;59417;44.788;10.334;2022-12-07T02:43:46;36.15;;;26.40;;
28174;SDS011;59417;44.788;10.334;2022-12-07T02:46:20;41.53;;;25.08;;
28174;SDS011;59417;44.788;10.334;2022-12-07T02:49:08;39.88;;;25.50;;
28174;SDS011;59417;44.788;10.334;2022-12-07T02:51:38;35.03;;;26.38;;
28174;SDS011;59417;44.788;10.334;2022-12-07T02:54:16;36.97;;;24.48;;
28174;SDS011;59417;44.788;10.334;2022-12-07T03:16:05;34.63;;;26.23;;
28174;SDS011;59417;44.788;10.334;2022-12-07T03:18:52;37.60;;;26.33;;
28174;SDS011;59417;44.788;10.334;2022-12-07T03:21:25;42.92;;;27.55;;
28174;SDS011;59417;44.788;10.334;2022-12-07T03:23:56;42.08;;;27.75;;
28174;SDS011;59417;44.788;10.334;2022-12-07T03:26:30;39.70;;;27.63;;
28174;SDS011;59417;44.788;10.334;2022-12-07T03:29:01;38.67;;;26.95;;
28174;SDS011;59417;44.788;10.334;2022-12-07T03:31:33;37.30;;;25.58;;
28174;SDS011;59417;44.788;10.334;2022-12-07T03:34:06;37.92;;;25.38;;
28174;SDS011;59417;44.788;10.334;2022-12-07T03:39:26;43.92;;;28.10;;
28174;SDS011;59417;44.788;10.334;2022-12-07T03:41:52;40.83;;;26.80;;
28174;SDS011;59417;44.788;10.334;2022-12-07T03:44:20;42.13;;;27.77;;
28174;SDS011;59417;44.788;10.334;2022-12-07T03:46:55;36.25;;;26.15;;
28174;SDS011;59417;44.788;10.334;2022-12-07T03:57:40;40.22;;;27.67;;
28174;SDS011;59417;44.788;10.334;2022-12-07T04:00:09;36.47;;;27.67;;
28174;SDS011;59417;44.788;10.334;2022-12-07T04:02:39;40.15;;;27.95;;
28174;SDS011;59417;44.788;10.334;2022-12-07T04:05:06;39.17;;;28.00;;
28174;SDS011;59417;44.788;10.334;2022-12-07T04:07:33;38.72;;;27.08;;
28174;SDS011;59417;44.788;10.334;2022-12-07T04:09:58;37.65;;;28.00;;
28174;SDS011;59417;44.788;10.334;2022-12-07T04:12:24;41.50;;;27.17;;
28174;SDS011;59417;44.788;10.334;2022-12-07T04:14:50;40.45;;;26.48;;
28174;SDS011;59417;44.788;10.334;2022-12-07T04:17:16;40.03;;;28.25;;
28174;SDS011;59417;44.788;10.334;2022-12-07T04:19:42;41.28;;;28.77;;
28174;SDS011;59417;44.788;10.334;2022-12-07T04:22:08;41.92;;;28.20;;
28174;SDS011;59417;44.788;10.334;2022-12-07T04:24:35;38.55;;;27.77;;
28174;SDS011;59417;44.788;10.334;2022-12-07T04:27:00;37.97;;;27.15;;
28174;SDS011;59417;44.788;10.334;2022-12-07T04:29:26;40.72;;;27.42;;
28174;SDS011;59417;44.788;10.334;2022-12-07T04:31:52;41.60;;;29.02;;
28174;SDS011;59417;44.788;10.334;2022-12-07T04:34:18;41.05;;;29.05;;
28174;SDS011;59417;44.788;10.334;2022-12-07T04:36:45;35.38;;;25.95;;
28174;SDS011;59417;44.788;10.334;2022-12-07T04:39:20;43.90;;;29.27;;
28174;SDS011;59417;44.788;10.334;2022-12-07T04:41:52;45.38;;;29.45;;
28174;SDS011;59417;44.788;10.334;2022-12-07T04:44:19;38.45;;;27.30;;
28174;SDS011;59417;44.788;10.334;2022-12-07T04:46:47;39.00;;;26.95;;
28174;SDS011;59417;44.788;10.334;2022-12-07T04:49:13;40.42;;;28.75;;
28174;SDS011;59417;44.788;10.334;2022-12-07T04:51:40;39.70;;;28.15;;
28174;SDS011;59417;44.788;10.334;2022-12-07T04:54:06;36.85;;;24.35;;
28174;SDS011;59417;44.788;10.334;2022-12-07T04:59:01;33.25;;;22.98;;
28174;SDS011;59417;44.788;10.334;2022-12-07T05:01:28;32.70;;;24.33;;
28174;SDS011;59417;44.788;10.334;2022-12-07T05:03:54;34.95;;;24.00;;
28174;SDS011;59417;44.788;10.334;2022-12-07T05:06:20;35.78;;;23.08;;
28174;SDS011;59417;44.788;10.334;2022-12-07T05:08:46;33.78;;;21.13;;
28174;SDS011;59417;44.788;10.334;2022-12-07T05:11:12;37.58;;;23.88;;
28174;SDS011;59417;44.788;10.334;2022-12-07T05:13:58;36.03;;;23.65;;
28174;SDS011;59417;44.788;10.334;2022-12-07T05:16:24;35.03;;;22.42;;
28174;SDS011;59417;44.788;10.334;2022-12-07T05:18:50;36.85;;;23.13;;
28174;SDS011;59417;44.788;10.334;2022-12-07T05:21:16;31.02;;;23.10;;
28174;SDS011;59417;44.788;10.334;2022-12-07T05:23:42;28.67;;;21.52;;
28174;SDS011;59417;44.788;10.334;2022-12-07T05:26:08;31.08;;;22.58;;
28174;SDS011;59417;44.788;10.334;2022-12-07T05:28:34;33.20;;;21.77;;
28174;SDS011;59417;44.788;10.334;2022-12-07T05:31:00;34.10;;;22.13;;
28174;SDS011;59417;44.788;10.334;2022-12-07T05:33:26;28.83;;;21.67;;
28174;SDS011;59417;44.788;10.334;2022-12-07T05:35:52;34.65;;;22.35;;
28174;SDS011;59417;44.788;10.334;2022-12-07T05:38:18;33.83;;;21.95;;
28174;SDS011;59417;44.788;10.334;2022-12-07T05:40:44;35.35;;;21.55;;
28174;SDS011;59417;44.788;10.334;2022-12-07T05:43:10;29.00;;;21.48;;
28174;SDS011;59417;44.788;10.334;2022-12-07T05:45:37;31.23;;;21.33;;
28174;SDS011;59417;44.788;10.334;2022-12-07T05:48:03;33.33;;;21.67;;
28174;SDS011;59417;44.788;10.334;2022-12-07T05:50:29;33.67;;;23.33;;
28174;SDS011;59417;44.788;10.334;2022-12-07T05:53:02;32.35;;;21.85;;
28174;SDS011;59417;44.788;10.334;2022-12-07T05:55:28;34.58;;;22.48;;
28174;SDS011;59417;44.788;10.334;2022-12-07T05:57:54;39.83;;;24.85;;
28174;SDS011;59417;44.788;10.334;2022-12-07T06:00:38;40.08;;;26.75;;
28174;SDS011;59417;44.788;10.334;2022-12-07T06:03:04;41.72;;;26.73;;
28174;SDS011;59417;44.788;10.334;2022-12-07T06:05:30;38.65;;;26.88;;
28174;SDS011;59417;44.788;10.334;2022-12-07T06:07:56;35.63;;;26.00;;
28174;SDS011;59417;44.788;10.334;2022-12-07T06:10:26;43.05;;;27.33;;
28174;SDS011;59417;44.788;10.334;2022-12-07T06:12:55;40.50;;;25.75;;
28174;SDS011;59417;44.788;10.334;2022-12-07T06:15:27;35.45;;;23.90;;
28174;SDS011;59417;44.788;10.334;2022-12-07T06:17:55;38.05;;;25.40;;
28174;SDS011;59417;44.788;10.334;2022-12-07T06:20:23;35.80;;;25.35;;
28174;SDS011;59417;44.788;10.334;2022-12-07T06:22:49;36.25;;;23.92;;
28174;SDS011;59417;44.788;10.334;2022-12-07T06:25:14;40.53;;;25.25;;
28174;SDS011;59417;44.788;10.334;2022-12-07T06:27:40;37.67;;;25.10;;
28174;SDS011;59417;44.788;10.334;2022-12-07T06:30:07;38.10;;;26.85;;
28174;SDS011;59417;44.788;10.334;2022-12-07T06:32:33;44.00;;;27.15;;
28174;SDS011;59417;44.788;10.334;2022-12-07T06:35:01;39.25;;;26.70;;
28174;SDS011;59417;44.788;10.334;2022-12-07T06:37:27;43.22;;;28.60;;
28174;SDS011;59417;44.788;10.334;2022-12-07T06:39:52;38.85;;;26.83;;
28174;SDS011;59417;44.788;10.334;2022-12-07T06:42:18;40.05;;;25.40;;
28174;SDS011;59417;44.788;10.334;2022-12-07T06:44:44;39.45;;;24.17;;
28174;SDS011;59417;44.788;10.334;2022-12-07T06:47:10;36.80;;;25.27;;
28174;SDS011;59417;44.788;10.334;2022-12-07T06:49:36;39.70;;;23.55;;
28174;SDS011;59417;44.788;10.334;2022-12-07T06:52:02;32.30;;;21.40;;
28174;SDS011;59417;44.788;10.334;2022-12-07T06:54:30;32.78;;;22.02;;
28174;SDS011;59417;44.788;10.334;2022-12-07T06:56:56;33.25;;;20.45;;
28174;SDS011;59417;44.788;10.334;2022-12-07T06:59:23;36.33;;;21.67;;
28174;SDS011;59417;44.788;10.334;2022-12-07T07:01:49;30.88;;;21.77;;
28174;SDS011;59417;44.788;10.334;2022-12-07T07:04:15;29.45;;;20.15;;
28174;SDS011;59417;44.788;10.334;2022-12-07T07:06:40;28.63;;;19.98;;
28174;SDS011;59417;44.788;10.334;2022-12-07T07:09:06;31.52;;;20.52;;
28174;SDS011;59417;44.788;10.334;2022-12-07T07:11:46;33.15;;;20.05;;
28174;SDS011;59417;44.788;10.334;2022-12-07T07:14:12;31.55;;;19.65;;
28174;SDS011;59417;44.788;10.334;2022-12-07T07:16:38;33.40;;;21.50;;
28174;SDS011;59417;44.788;10.334;2022-12-07T07:19:04;29.42;;;20.08;;
28174;SDS011;59417;44.788;10.334;2022-12-07T07:21:30;28.70;;;20.77;;
28174;SDS011;59417;44.788;10.334;2022-12-07T07:23:56;29.30;;;21.13;;
28174;SDS011;59417;44.788;10.334;2022-12-07T07:26:23;35.95;;;21.50;;
28174;SDS011;59417;44.788;10.334;2022-12-07T07:28:53;29.88;;;20.27;;
28174;SDS011;59417;44.788;10.334;2022-12-07T07:31:19;31.50;;;20.15;;
28174;SDS011;59417;44.788;10.334;2022-12-07T07:34:12;30.30;;;20.13;;
28174;SDS011;59417;44.788;10.334;2022-12-07T07:36:38;30.33;;;19.40;;
28174;SDS011;59417;44.788;10.334;2022-12-07T07:39:04;26.80;;;19.20;;
28174;SDS011;59417;44.788;10.334;2022-12-07T07:41:31;28.05;;;20.08;;
28174;SDS011;59417;44.788;10.334;2022-12-07T07:44:16;26.27;;;18.33;;
28174;SDS011;59417;44.788;10.334;2022-12-07T07:46:42;26.45;;;18.98;;
28174;SDS011;59417;44.788;10.334;2022-12-07T07:49:09;28.02;;;18.30;;
28174;SDS011;59417;44.788;10.334;2022-12-07T07:51:35;27.98;;;18.85;;
28174;SDS011;59417;44.788;10.334;2022-12-07T07:54:01;30.35;;;21.10;;
28174;SDS011;59417;44.788;10.334;2022-12-07T07:56:30;26.48;;;19.75;;
28174;SDS011;59417;44.788;10.334;2022-12-07T07:58:56;31.33;;;20.83;;
28174;SDS011;59417;44.788;10.334;2022-12-07T08:01:21;30.25;;;19.90;;
28174;SDS011;59417;44.788;10.334;2022-12-07T08:03:48;31.30;;;21.63;;
28174;SDS011;59417;44.788;10.334;2022-12-07T08:06:15;30.80;;;21.55;;
28174;SDS011;59417;44.788;10.334;2022-12-07T08:08:42;29.83;;;20.40;;
28174;SDS011;59417;44.788;10.334;2022-12-07T08:11:09;34.60;;;22.27;;
28174;SDS011;59417;44.788;10.334;2022-12-07T08:13:39;28.10;;;20.40;;
28174;SDS011;59417;44.788;10.334;2022-12-07T08:16:09;36.63;;;20.58;;
28174;SDS011;59417;44.788;10.334;2022-12-07T08:18:36;32.72;;;22.20;;
28174;SDS011;59417;44.788;10.334;2022-12-07T08:21:02;32.28;;;21.80;;
28174;SDS011;59417;44.788;10.334;2022-12-07T08:23:29;29.88;;;21.17;;
28174;SDS011;59417;44.788;10.334;2022-12-07T08:25:59;38.65;;;23.85;;
28174;SDS011;59417;44.788;10.334;2022-12-07T08:28:32;35.28;;;22.98;;
28174;SDS011;59417;44.788;10.334;2022-12-07T08:31:01;44.90;;;21.80;;
28174;SDS011;59417;44.788;10.334;2022-12-07T08:33:29;31.48;;;20.27;;
28174;SDS011;59417;44.788;10.334;2022-12-07T08:35:54;32.90;;;20.75;;
28174;SDS011;59417;44.788;10.334;2022-12-07T08:38:25;28.85;;;20.08;;
28174;SDS011;59417;44.788;10.334;2022-12-07T08:40:54;33.45;;;22.70;;
28174;SDS011;59417;44.788;10.334;2022-12-07T08:43:22;37.40;;;20.77;;
28174;SDS011;59417;44.788;10.334;2022-12-07T08:45:51;32.30;;;22.63;;
28174;SDS011;59417;44.788;10.334;2022-12-07T08:48:28;33.17;;;21.15;;
28174;SDS011;59417;44.788;10.334;2022-12-07T08:50:54;33.63;;;21.70;;
28174;SDS011;59417;44.788;10.334;2022-12-07T08:53:19;33.83;;;21.75;;
28174;SDS011;59417;44.788;10.334;2022-12-07T08:55:46;33.53;;;21.48;;
28174;SDS011;59417;44.788;10.334;2022-12-07T08:58:13;30.15;;;20.48;;
28174;SDS011;59417;44.788;10.334;2022-12-07T09:00:39;31.63;;;22.95;;
28174;SDS011;59417;44.788;10.334;2022-12-07T09:03:05;30.88;;;21.65;;
28174;SDS011;59417;44.788;10.334;2022-12-07T09:05:31;30.55;;;22.33;;
28174;SDS011;59417;44.788;10.334;2022-12-07T09:07:59;30.85;;;21.75;;
28174;SDS011;59417;44.788;10.334;2022-12-07T09:10:29;38.20;;;23.98;;
28174;SDS011;59417;44.788;10.334;2022-12-07T09:12:56;35.28;;;23.63;;
28174;SDS011;59417;44.788;10.334;2022-12-07T09:15:27;33.78;;;25.10;;
28174;SDS011;59417;44.788;10.334;2022-12-07T09:17:56;35.40;;;25.23;;
28174;SDS011;59417;44.788;10.334;2022-12-07T09:20:22;34.20;;;23.55;;
28174;SDS011;59417;44.788;10.334;2022-12-07T09:22:52;37.55;;;25.77;;
28174;SDS011;59417;44.788;10.334;2022-12-07T09:25:18;39.63;;;23.95;;
28174;SDS011;59417;44.788;10.334;2022-12-07T09:27:44;35.33;;;24.05;;
28174;SDS011;59417;44.788;10.334;2022-12-07T09:30:10;34.45;;;23.73;;
28174;SDS011;59417;44.788;10.334;2022-12-07T09:32:37;33.38;;;23.50;;
28174;SDS011;59417;44.788;10.334;2022-12-07T09:35:02;37.15;;;24.42;;
28174;SDS011;59417;44.788;10.334;2022-12-07T09:37:28;41.58;;;25.63;;
28174;SDS011;59417;44.788;10.334;2022-12-07T09:39:54;35.53;;;23.67;;
28174;SDS011;59417;44.788;10.334;2022-12-07T09:42:35;44.60;;;25.40;;
28174;SDS011;59417;44.788;10.334;2022-12-07T09:45:05;44.92;;;25.05;;
28174;SDS011;59417;44.788;10.334;2022-12-07T09:47:32;39.45;;;26.75;;
28174;SDS011;59417;44.788;10.334;2022-12-07T09:50:07;40.90;;;23.67;;
28174;SDS011;59417;44.788;10.334;2022-12-07T09:52:39;37.60;;;25.77;;
28174;SDS011;59417;44.788;10.334;2022-12-07T09:55:10;40.05;;;27.88;;
28174;SDS011;59417;44.788;10.334;2022-12-07T09:57:38;36.78;;;23.95;;
28174;SDS011;59417;44.788;10.334;2022-12-07T10:00:09;42.75;;;26.90;;
28174;SDS011;59417;44.788;10.334;2022-12-07T10:02:43;34.75;;;24.85;;
28174;SDS011;59417;44.788;10.334;2022-12-07T10:05:14;40.17;;;27.25;;
28174;SDS011;59417;44.788;10.334;2022-12-07T10:07:44;39.22;;;26.33;;
28174;SDS011;59417;44.788;10.334;2022-12-07T10:10:13;42.78;;;25.30;;
28174;SDS011;59417;44.788;10.334;2022-12-07T10:12:59;37.58;;;24.02;;
28174;SDS011;59417;44.788;10.334;2022-12-07T10:15:49;35.70;;;24.83;;
28174;SDS011;59417;44.788;10.334;2022-12-07T10:18:18;34.78;;;24.23;;
28174;SDS011;59417;44.788;10.334;2022-12-07T10:20:47;31.00;;;23.02;;
28174;SDS011;59417;44.788;10.334;2022-12-07T10:23:25;35.45;;;24.25;;
28174;SDS011;59417;44.788;10.334;2022-12-07T10:25:51;33.90;;;24.17;;
28174;SDS011;59417;44.788;10.334;2022-12-07T10:28:27;33.50;;;22.65;;
28174;SDS011;59417;44.788;10.334;2022-12-07T10:31:01;33.25;;;22.73;;
28174;SDS011;59417;44.788;10.334;2022-12-07T10:33:58;30.80;;;22.02;;
28174;SDS011;59417;44.788;10.334;2022-12-07T10:44:29;34.08;;;21.77;;
28174;SDS011;59417;44.788;10.334;2022-12-07T11:01:13;30.83;;;22.77;;
28174;SDS011;59417;44.788;10.334;2022-12-07T11:03:51;36.75;;;24.45;;
28174;SDS011;59417;44.788;10.334;2022-12-07T11:35:11;45.45;;;28.00;;
28174;SDS011;59417;44.788;10.334;2022-12-07T11:38:12;44.05;;;26.02;;
28174;SDS011;59417;44.788;10.334;2022-12-07T11:40:51;40.13;;;25.80;;
28174;SDS011;59417;44.788;10.334;2022-12-07T11:43:25;41.83;;;27.02;;
28174;SDS011;59417;44.788;10.334;2022-12-07T11:45:58;50.25;;;30.42;;
28174;SDS011;59417;44.788;10.334;2022-12-07T11:48:46;52.90;;;31.65;;
28174;SDS011;59417;44.788;10.334;2022-12-07T11:51:18;48.45;;;30.80;;
28174;SDS011;59417;44.788;10.334;2022-12-07T11:53:56;50.30;;;30.67;;
28174;SDS011;59417;44.788;10.334;2022-12-07T11:56:28;49.55;;;30.58;;
28174;SDS011;59417;44.788;10.334;2022-12-07T11:59:12;49.20;;;30.15;;
28174;SDS011;59417;44.788;10.334;2022-12-07T12:04:41;53.92;;;33.42;;
28174;SDS011;59417;44.788;10.334;2022-12-07T12:07:21;55.25;;;33.10;;
28174;SDS011;59417;44.788;10.334;2022-12-07T12:09:53;53.90;;;33.90;;
28174;SDS011;59417;44.788;10.334;2022-12-07T12:21:32;55.90;;;35.53;;
28174;SDS011;59417;44.788;10.334;2022-12-07T12:23:59;54.08;;;33.70;;
28174;SDS011;59417;44.788;10.334;2022-12-07T12:26:31;55.97;;;32.75;;
28174;SDS011;59417;44.788;10.334;2022-12-07T12:32:21;57.30;;;35.75;;
28174;SDS011;59417;44.788;10.334;2022-12-07T12:37:52;62.33;;;35.50;;
28174;SDS011;59417;44.788;10.334;2022-12-07T12:43:42;68.82;;;37.78;;
28174;SDS011;59417;44.788;10.334;2022-12-07T12:54:25;58.80;;;36.15;;
28174;SDS011;59417;44.788;10.334;2022-12-07T13:01:50;54.80;;;34.42;;
28174;SDS011;59417;44.788;10.334;2022-12-07T13:04:27;50.05;;;33.50;;
28174;SDS011;59417;44.788;10.334;2022-12-07T13:07:02;56.40;;;33.35;;
28174;SDS011;59417;44.788;10.334;2022-12-07T13:09:29;56.33;;;34.35;;
28174;SDS011;59417;44.788;10.334;2022-12-07T13:14:52;59.78;;;35.08;;
28174;SDS011;59417;44.788;10.334;2022-12-07T13:20:06;56.95;;;35.85;;
28174;SDS011;59417;44.788;10.334;2022-12-07T13:25:08;62.47;;;36.00;;
28174;SDS011;59417;44.788;10.334;2022-12-07T13:27:46;55.28;;;34.50;;
28174;SDS011;59417;44.788;10.334;2022-12-07T13:30:27;54.78;;;35.22;;
28174;SDS011;59417;44.788;10.334;2022-12-07T13:32:55;57.28;;;36.20;;
28174;SDS011;59417;44.788;10.334;2022-12-07T13:35:27;60.90;;;35.80;;
28174;SDS011;59417;44.788;10.334;2022-12-07T13:38:04;58.58;;;36.65;;
28174;SDS011;59417;44.788;10.334;2022-12-07T13:40:40;59.70;;;38.28;;
28174;SDS011;59417;44.788;10.334;2022-12-07T13:43:12;62.70;;;36.95;;
28174;SDS011;59417;44.788;10.334;2022-12-07T13:45:40;57.55;;;36.30;;
28174;SDS011;59417;44.788;10.334;2022-12-07T13:48:20;59.00;;;35.70;;
28174;SDS011;59417;44.788;10.334;2022-12-07T13:50:54;61.47;;;38.45;;
28174;SDS011;59417;44.788;10.334;2022-12-07T13:53:21;56.05;;;34.28;;
28174;SDS011;59417;44.788;10.334;2022-12-07T13:55:48;64.88;;;38.47;;
28174;SDS011;59417;44.788;10.334;2022-12-07T13:58:14;58.70;;;36.63;;
28174;SDS011;59417;44.788;10.334;2022-12-07T14:00:40;56.75;;;34.75;;
28174;SDS011;59417;44.788;10.334;2022-12-07T14:05:40;67.57;;;37.30;;
28174;SDS011;59417;44.788;10.334;2022-12-07T14:13:31;68.50;;;41.38;;
28174;SDS011;59417;44.788;10.334;2022-12-07T14:16:31;62.92;;;36.72;;
28174;SDS011;59417;44.788;10.334;2022-12-07T14:19:06;63.03;;;38.78;;
28174;SDS011;59417;44.788;10.334;2022-12-07T14:22:07;60.70;;;37.42;;
28174;SDS011;59417;44.788;10.334;2022-12-07T14:24:43;58.95;;;35.20;;
28174;SDS011;59417;44.788;10.334;2022-12-07T14:27:20;61.53;;;36.75;;
28174;SDS011;59417;44.788;10.334;2022-12-07T14:30:02;66.68;;;36.38;;
28174;SDS011;59417;44.788;10.334;2022-12-07T14:32:29;66.18;;;39.13;;
28174;SDS011;59417;44.788;10.334;2022-12-07T14:35:03;65.43;;;37.97;;
28174;SDS011;59417;44.788;10.334;2022-12-07T14:37:37;56.03;;;32.93;;
28174;SDS011;59417;44.788;10.334;2022-12-07T14:40:11;57.80;;;33.92;;
28174;SDS011;59417;44.788;10.334;2022-12-07T14:42:40;53.08;;;35.60;;
28174;SDS011;59417;44.788;10.334;2022-12-07T14:45:19;57.80;;;32.97;;
28174;SDS011;59417;44.788;10.334;2022-12-07T14:47:47;59.10;;;35.30;;
28174;SDS011;59417;44.788;10.334;2022-12-07T14:50:15;55.97;;;35.17;;
28174;SDS011;59417;44.788;10.334;2022-12-07T14:52:43;59.15;;;34.83;;
28174;SDS011;59417;44.788;10.334;2022-12-07T14:55:33;60.15;;;36.13;;
28174;SDS011;59417;44.788;10.334;2022-12-07T14:58:00;53.25;;;33.42;;
28174;SDS011;59417;44.788;10.334;2022-12-07T15:00:26;54.42;;;35.83;;
28174;SDS011;59417;44.788;10.334;2022-12-07T15:02:56;58.22;;;33.40;;
28174;SDS011;59417;44.788;10.334;2022-12-07T15:05:23;64.78;;;36.58;;
28174;SDS011;59417;44.788;10.334;2022-12-07T15:07:49;53.60;;;35.80;;
28174;SDS011;59417;44.788;10.334;2022-12-07T15:10:22;57.03;;;34.92;;
28174;SDS011;59417;44.788;10.334;2022-12-07T15:12:54;50.25;;;34.50;;
28174;SDS011;59417;44.788;10.334;2022-12-07T15:15:41;54.10;;;34.47;;
28174;SDS011;59417;44.788;10.334;2022-12-07T15:18:13;64.70;;;36.50;;
28174;SDS011;59417;44.788;10.334;2022-12-07T15:20:39;55.80;;;34.88;;
28174;SDS011;59417;44.788;10.334;2022-12-07T15:23:05;61.30;;;36.75;;
28174;SDS011;59417;44.788;10.334;2022-12-07T15:25:31;64.60;;;35.83;;
28174;SDS011;59417;44.788;10.334;2022-12-07T15:27:57;59.40;;;38.40;;
28174;SDS011;59417;44.788;10.334;2022-12-07T15:32:53;59.88;;;37.50;;
28174;SDS011;59417;44.788;10.334;2022-12-07T15:40:40;60.03;;;37.78;;
28174;SDS011;59417;44.788;10.334;2022-12-07T15:43:09;61.75;;;36.22;;
28174;SDS011;59417;44.788;10.334;2022-12-07T15:45:55;64.25;;;38.65;;
28174;SDS011;59417;44.788;10.334;2022-12-07T15:48:27;63.83;;;37.17;;
28174;SDS011;59417;44.788;10.334;2022-12-07T15:50:53;63.63;;;38.83;;
28174;SDS011;59417;44.788;10.334;2022-12-07T15:53:19;66.13;;;36.30;;
28174;SDS011;59417;44.788;10.334;2022-12-07T15:55:45;60.33;;;37.63;;
28174;SDS011;59417;44.788;10.334;2022-12-07T15:58:12;69.88;;;40.03;;
28174;SDS011;59417;44.788;10.334;2022-12-07T16:00:37;64.45;;;35.90;;
28174;SDS011;59417;44.788;10.334;2022-12-07T16:03:08;69.85;;;39.33;;
28174;SDS011;59417;44.788;10.334;2022-12-07T16:05:34;61.65;;;37.13;;
28174;SDS011;59417;44.788;10.334;2022-12-07T16:08:01;65.47;;;39.50;;
28174;SDS011;59417;44.788;10.334;2022-12-07T16:10:26;63.10;;;37.10;;
28174;SDS011;59417;44.788;10.334;2022-12-07T16:12:53;71.70;;;36.42;;
28174;SDS011;59417;44.788;10.334;2022-12-07T16:15:19;59.30;;;33.35;;
28174;SDS011;59417;44.788;10.334;2022-12-07T16:17:44;57.95;;;33.15;;
28174;SDS011;59417;44.788;10.334;2022-12-07T16:20:11;66.28;;;36.47;;
28174;SDS011;59417;44.788;10.334;2022-12-07T16:22:37;61.55;;;36.03;;
28174;SDS011;59417;44.788;10.334;2022-12-07T16:25:03;69.75;;;37.65;;
28174;SDS011;59417;44.788;10.334;2022-12-07T16:27:32;64.43;;;37.42;;
28174;SDS011;59417;44.788;10.334;2022-12-07T16:30:01;65.60;;;39.47;;
28174;SDS011;59417;44.788;10.334;2022-12-07T16:32:29;62.20;;;34.78;;
28174;SDS011;59417;44.788;10.334;2022-12-07T16:34:55;65.80;;;36.92;;
28174;SDS011;59417;44.788;10.334;2022-12-07T16:37:22;72.10;;;40.70;;
28174;SDS011;59417;44.788;10.334;2022-12-07T16:39:48;61.67;;;34.95;;
28174;SDS011;59417;44.788;10.334;2022-12-07T16:42:14;64.22;;;37.35;;
28174;SDS011;59417;44.788;10.334;2022-12-07T16:44:40;65.55;;;35.60;;
28174;SDS011;59417;44.788;10.334;2022-12-07T16:47:06;63.00;;;36.75;;
28174;SDS011;59417;44.788;10.334;2022-12-07T16:49:32;66.97;;;36.75;;
28174;SDS011;59417;44.788;10.334;2022-12-07T16:51:58;60.95;;;37.35;;
28174;SDS011;59417;44.788;10.334;2022-12-07T16:54:26;74.07;;;38.33;;
28174;SDS011;59417;44.788;10.334;2022-12-07T16:56:56;72.60;;;38.95;;
28174;SDS011;59417;44.788;10.334;2022-12-07T16:59:22;67.60;;;38.08;;
28174;SDS011;59417;44.788;10.334;2022-12-07T17:01:50;63.83;;;38.20;;
28174;SDS011;59417;44.788;10.334;2022-12-07T17:06:48;68.38;;;38.75;;
28174;SDS011;59417;44.788;10.334;2022-12-07T17:09:14;65.63;;;37.22;;
28174;SDS011;59417;44.788;10.334;2022-12-07T17:11:42;67.22;;;37.28;;
28174;SDS011;59417;44.788;10.334;2022-12-07T17:14:10;69.53;;;39.00;;
28174;SDS011;59417;44.788;10.334;2022-12-07T17:16:54;74.65;;;35.92;;